sensor_id;sensor_type;location;lat;lon;timestamp;P1;durP1;ratioP1;P2;durP2;ratioP2
18320;SDS011;54904;54.350;18.664;2023-02-15T00:00:18;5.50;;;4.50;;
18320;SDS011;54904;54.350;18.664;2023-02-15T00:02:45;6.03;;;4.33;;
18320;SDS011;54904;54.350;18.664;2023-02-15T00:05:13;6.77;;;4.07;;
18320;SDS011;54904;54.350;18.664;2023-02-15T00:07:40;4.10;;;3.70;;
18320;SDS011;54904;54.350;18.664;2023-02-15T00:10:07;6.40;;;4.47;;
18320;SDS011;54904;54.350;18.664;2023-02-15T00:12:34;5.10;;;3.93;;
18320;SDS011;54904;54.350;18.664;2023-02-15T00:15:03;7.17;;;4.37;;
18320;SDS011;54904;54.350;18.664;2023-02-15T00:17:30;9.57;;;5.33;;
18320;SDS011;54904;54.350;18.664;2023-02-15T00:19:57;5.90;;;4.70;;
18320;SDS011;54904;54.350;18.664;2023-02-15T00:22:25;4.93;;;4.20;;
18320;SDS011;54904;54.350;18.664;2023-02-15T00:24:52;4.80;;;3.77;;
18320;SDS011;54904;54.350;18.664;2023-02-15T00:27:19;7.73;;;5.40;;
18320;SDS011;54904;54.350;18.664;2023-02-15T00:29:46;13.53;;;6.80;;
18320;SDS011;54904;54.350;18.664;2023-02-15T00:32:15;11.83;;;5.67;;
18320;SDS011;54904;54.350;18.664;2023-02-15T00:34:42;5.47;;;4.30;;
18320;SDS011;54904;54.350;18.664;2023-02-15T00:37:09;6.00;;;4.47;;
18320;SDS011;54904;54.350;18.664;2023-02-15T00:39:36;6.67;;;4.27;;
18320;SDS011;54904;54.350;18.664;2023-02-15T00:42:04;5.67;;;4.23;;
18320;SDS011;54904;54.350;18.664;2023-02-15T00:46:58;10.50;;;6.10;;
18320;SDS011;54904;54.350;18.664;2023-02-15T00:49:27;12.10;;;7.27;;
18320;SDS011;54904;54.350;18.664;2023-02-15T00:51:54;13.57;;;7.20;;
18320;SDS011;54904;54.350;18.664;2023-02-15T00:54:21;9.10;;;6.03;;
18320;SDS011;54904;54.350;18.664;2023-02-15T00:56:49;13.27;;;7.50;;
18320;SDS011;54904;54.350;18.664;2023-02-15T00:59:19;14.90;;;7.57;;
18320;SDS011;54904;54.350;18.664;2023-02-15T01:01:46;15.23;;;8.67;;
18320;SDS011;54904;54.350;18.664;2023-02-15T01:04:14;12.77;;;7.80;;
18320;SDS011;54904;54.350;18.664;2023-02-15T01:06:45;16.40;;;8.03;;
18320;SDS011;54904;54.350;18.664;2023-02-15T01:09:12;13.63;;;7.37;;
18320;SDS011;54904;54.350;18.664;2023-02-15T01:11:39;18.40;;;8.70;;
18320;SDS011;54904;54.350;18.664;2023-02-15T01:14:06;15.27;;;8.43;;
18320;SDS011;54904;54.350;18.664;2023-02-15T01:16:37;19.30;;;9.37;;
18320;SDS011;54904;54.350;18.664;2023-02-15T01:19:04;18.23;;;9.80;;
18320;SDS011;54904;54.350;18.664;2023-02-15T01:21:32;16.70;;;9.37;;
18320;SDS011;54904;54.350;18.664;2023-02-15T01:24:03;15.87;;;8.57;;
18320;SDS011;54904;54.350;18.664;2023-02-15T01:26:30;13.73;;;8.67;;
18320;SDS011;54904;54.350;18.664;2023-02-15T01:28:57;15.97;;;9.00;;
18320;SDS011;54904;54.350;18.664;2023-02-15T01:31:24;12.93;;;8.30;;
18320;SDS011;54904;54.350;18.664;2023-02-15T01:33:51;8.43;;;6.50;;
18320;SDS011;54904;54.350;18.664;2023-02-15T01:36:19;8.53;;;6.37;;
18320;SDS011;54904;54.350;18.664;2023-02-15T01:38:46;8.90;;;5.47;;
18320;SDS011;54904;54.350;18.664;2023-02-15T01:41:16;9.17;;;6.03;;
18320;SDS011;54904;54.350;18.664;2023-02-15T01:43:49;9.60;;;6.23;;
18320;SDS011;54904;54.350;18.664;2023-02-15T01:46:18;8.57;;;5.73;;
18320;SDS011;54904;54.350;18.664;2023-02-15T01:48:50;13.23;;;7.20;;
18320;SDS011;54904;54.350;18.664;2023-02-15T01:51:23;8.60;;;5.77;;
18320;SDS011;54904;54.350;18.664;2023-02-15T01:53:57;6.37;;;5.13;;
18320;SDS011;54904;54.350;18.664;2023-02-15T01:56:29;5.90;;;4.57;;
18320;SDS011;54904;54.350;18.664;2023-02-15T01:59:00;8.47;;;5.50;;
18320;SDS011;54904;54.350;18.664;2023-02-15T02:01:31;6.47;;;4.60;;
18320;SDS011;54904;54.350;18.664;2023-02-15T02:03:59;9.87;;;5.83;;
18320;SDS011;54904;54.350;18.664;2023-02-15T02:06:32;11.73;;;7.13;;
18320;SDS011;54904;54.350;18.664;2023-02-15T02:09:02;10.77;;;6.30;;
18320;SDS011;54904;54.350;18.664;2023-02-15T02:11:31;8.43;;;5.67;;
18320;SDS011;54904;54.350;18.664;2023-02-15T02:13:59;8.03;;;5.33;;
18320;SDS011;54904;54.350;18.664;2023-02-15T02:16:28;10.97;;;5.87;;
18320;SDS011;54904;54.350;18.664;2023-02-15T02:19:17;8.00;;;5.53;;
18320;SDS011;54904;54.350;18.664;2023-02-15T02:28:27;7.30;;;5.30;;
18320;SDS011;54904;54.350;18.664;2023-02-15T02:31:27;9.73;;;5.83;;
18320;SDS011;54904;54.350;18.664;2023-02-15T02:34:08;8.47;;;5.43;;
18320;SDS011;54904;54.350;18.664;2023-02-15T02:36:41;13.87;;;7.00;;
18320;SDS011;54904;54.350;18.664;2023-02-15T02:39:20;13.50;;;7.60;;
18320;SDS011;54904;54.350;18.664;2023-02-15T02:41:55;12.97;;;6.83;;
18320;SDS011;54904;54.350;18.664;2023-02-15T02:44:29;11.80;;;6.87;;
18320;SDS011;54904;54.350;18.664;2023-02-15T02:47:02;12.20;;;6.70;;
18320;SDS011;54904;54.350;18.664;2023-02-15T02:49:36;12.53;;;6.93;;
18320;SDS011;54904;54.350;18.664;2023-02-15T02:52:06;9.10;;;6.37;;
18320;SDS011;54904;54.350;18.664;2023-02-15T02:54:55;11.23;;;6.67;;
18320;SDS011;54904;54.350;18.664;2023-02-15T02:57:22;11.93;;;7.73;;
18320;SDS011;54904;54.350;18.664;2023-02-15T02:59:53;14.03;;;7.70;;
18320;SDS011;54904;54.350;18.664;2023-02-15T03:02:23;9.07;;;6.90;;
18320;SDS011;54904;54.350;18.664;2023-02-15T03:04:57;12.03;;;7.13;;
18320;SDS011;54904;54.350;18.664;2023-02-15T03:07:29;8.73;;;6.00;;
18320;SDS011;54904;54.350;18.664;2023-02-15T03:10:00;9.10;;;6.10;;
18320;SDS011;54904;54.350;18.664;2023-02-15T03:12:32;9.67;;;6.13;;
18320;SDS011;54904;54.350;18.664;2023-02-15T03:15:03;8.27;;;5.67;;
18320;SDS011;54904;54.350;18.664;2023-02-15T03:17:33;8.80;;;6.07;;
18320;SDS011;54904;54.350;18.664;2023-02-15T03:20:03;10.20;;;6.40;;
18320;SDS011;54904;54.350;18.664;2023-02-15T03:22:35;8.47;;;5.33;;
18320;SDS011;54904;54.350;18.664;2023-02-15T03:25:12;12.53;;;6.00;;
18320;SDS011;54904;54.350;18.664;2023-02-15T03:27:43;10.53;;;6.00;;
18320;SDS011;54904;54.350;18.664;2023-02-15T03:30:13;10.67;;;6.03;;
18320;SDS011;54904;54.350;18.664;2023-02-15T03:32:43;8.20;;;5.50;;
18320;SDS011;54904;54.350;18.664;2023-02-15T03:35:11;9.10;;;5.33;;
18320;SDS011;54904;54.350;18.664;2023-02-15T03:37:39;15.73;;;8.10;;
18320;SDS011;54904;54.350;18.664;2023-02-15T03:40:11;11.33;;;7.77;;
18320;SDS011;54904;54.350;18.664;2023-02-15T03:43:04;14.37;;;8.00;;
18320;SDS011;54904;54.350;18.664;2023-02-15T03:45:38;9.27;;;6.40;;
18320;SDS011;54904;54.350;18.664;2023-02-15T03:48:20;9.50;;;6.33;;
18320;SDS011;54904;54.350;18.664;2023-02-15T03:50:50;9.43;;;6.70;;
18320;SDS011;54904;54.350;18.664;2023-02-15T03:53:38;10.77;;;6.10;;
18320;SDS011;54904;54.350;18.664;2023-02-15T03:56:08;9.43;;;6.17;;
18320;SDS011;54904;54.350;18.664;2023-02-15T03:58:35;11.53;;;6.53;;
18320;SDS011;54904;54.350;18.664;2023-02-15T04:01:21;8.97;;;6.30;;
18320;SDS011;54904;54.350;18.664;2023-02-15T04:04:27;14.93;;;9.13;;
18320;SDS011;54904;54.350;18.664;2023-02-15T04:07:01;12.20;;;7.53;;
18320;SDS011;54904;54.350;18.664;2023-02-15T04:09:30;9.73;;;6.70;;
18320;SDS011;54904;54.350;18.664;2023-02-15T04:12:16;10.57;;;6.87;;
18320;SDS011;54904;54.350;18.664;2023-02-15T04:14:43;9.73;;;6.97;;
18320;SDS011;54904;54.350;18.664;2023-02-15T04:17:28;13.10;;;7.80;;
18320;SDS011;54904;54.350;18.664;2023-02-15T04:19:55;10.27;;;6.83;;
18320;SDS011;54904;54.350;18.664;2023-02-15T04:22:40;9.47;;;6.43;;
18320;SDS011;54904;54.350;18.664;2023-02-15T04:25:25;9.70;;;6.37;;
18320;SDS011;54904;54.350;18.664;2023-02-15T04:27:54;10.23;;;6.73;;
18320;SDS011;54904;54.350;18.664;2023-02-15T04:30:22;9.73;;;6.60;;
18320;SDS011;54904;54.350;18.664;2023-02-15T04:32:51;14.33;;;8.47;;
18320;SDS011;54904;54.350;18.664;2023-02-15T04:35:19;9.37;;;6.67;;
18320;SDS011;54904;54.350;18.664;2023-02-15T04:37:47;10.63;;;7.40;;
18320;SDS011;54904;54.350;18.664;2023-02-15T04:40:15;8.73;;;5.93;;
18320;SDS011;54904;54.350;18.664;2023-02-15T04:42:43;9.20;;;6.57;;
18320;SDS011;54904;54.350;18.664;2023-02-15T04:45:11;7.27;;;5.67;;
18320;SDS011;54904;54.350;18.664;2023-02-15T04:47:39;8.40;;;5.23;;
18320;SDS011;54904;54.350;18.664;2023-02-15T04:50:06;10.07;;;6.40;;
18320;SDS011;54904;54.350;18.664;2023-02-15T04:52:33;9.80;;;5.37;;
18320;SDS011;54904;54.350;18.664;2023-02-15T04:55:01;8.67;;;5.80;;
18320;SDS011;54904;54.350;18.664;2023-02-15T04:57:28;8.27;;;5.90;;
18320;SDS011;54904;54.350;18.664;2023-02-15T04:59:55;9.00;;;6.17;;
18320;SDS011;54904;54.350;18.664;2023-02-15T05:02:25;9.23;;;5.90;;
18320;SDS011;54904;54.350;18.664;2023-02-15T05:04:52;9.03;;;5.73;;
18320;SDS011;54904;54.350;18.664;2023-02-15T05:07:19;11.53;;;7.63;;
18320;SDS011;54904;54.350;18.664;2023-02-15T05:09:47;11.33;;;6.57;;
18320;SDS011;54904;54.350;18.664;2023-02-15T05:12:14;12.60;;;6.97;;
18320;SDS011;54904;54.350;18.664;2023-02-15T05:14:41;9.80;;;6.60;;
18320;SDS011;54904;54.350;18.664;2023-02-15T05:17:08;9.53;;;6.80;;
18320;SDS011;54904;54.350;18.664;2023-02-15T05:19:36;10.50;;;7.10;;
18320;SDS011;54904;54.350;18.664;2023-02-15T05:22:03;10.73;;;7.10;;
18320;SDS011;54904;54.350;18.664;2023-02-15T05:24:31;11.23;;;7.27;;
18320;SDS011;54904;54.350;18.664;2023-02-15T05:27:15;13.73;;;9.20;;
18320;SDS011;54904;54.350;18.664;2023-02-15T05:30:00;20.67;;;11.13;;
18320;SDS011;54904;54.350;18.664;2023-02-15T05:32:27;16.60;;;9.33;;
18320;SDS011;54904;54.350;18.664;2023-02-15T05:34:55;14.67;;;9.23;;
18320;SDS011;54904;54.350;18.664;2023-02-15T05:37:23;15.60;;;10.10;;
18320;SDS011;54904;54.350;18.664;2023-02-15T05:39:50;16.73;;;10.90;;
18320;SDS011;54904;54.350;18.664;2023-02-15T05:42:17;20.97;;;11.37;;
18320;SDS011;54904;54.350;18.664;2023-02-15T05:44:44;22.33;;;12.37;;
18320;SDS011;54904;54.350;18.664;2023-02-15T05:47:11;18.73;;;11.27;;
18320;SDS011;54904;54.350;18.664;2023-02-15T05:49:38;28.07;;;14.43;;
18320;SDS011;54904;54.350;18.664;2023-02-15T05:52:07;23.67;;;12.77;;
18320;SDS011;54904;54.350;18.664;2023-02-15T05:54:34;25.17;;;12.43;;
18320;SDS011;54904;54.350;18.664;2023-02-15T05:57:01;25.00;;;12.73;;
18320;SDS011;54904;54.350;18.664;2023-02-15T05:59:28;21.47;;;12.30;;
18320;SDS011;54904;54.350;18.664;2023-02-15T06:01:55;21.13;;;11.90;;
18320;SDS011;54904;54.350;18.664;2023-02-15T06:04:22;26.33;;;12.30;;
18320;SDS011;54904;54.350;18.664;2023-02-15T06:06:50;20.43;;;12.07;;
18320;SDS011;54904;54.350;18.664;2023-02-15T06:09:18;23.30;;;12.23;;
18320;SDS011;54904;54.350;18.664;2023-02-15T06:11:45;23.40;;;13.27;;
18320;SDS011;54904;54.350;18.664;2023-02-15T06:14:12;20.00;;;11.53;;
18320;SDS011;54904;54.350;18.664;2023-02-15T06:16:39;16.57;;;10.30;;
18320;SDS011;54904;54.350;18.664;2023-02-15T06:19:07;21.93;;;12.33;;
18320;SDS011;54904;54.350;18.664;2023-02-15T06:21:34;23.07;;;13.50;;
18320;SDS011;54904;54.350;18.664;2023-02-15T06:24:01;22.80;;;13.13;;
18320;SDS011;54904;54.350;18.664;2023-02-15T06:26:29;20.53;;;12.63;;
18320;SDS011;54904;54.350;18.664;2023-02-15T06:28:56;22.07;;;11.97;;
18320;SDS011;54904;54.350;18.664;2023-02-15T06:31:24;23.43;;;12.30;;
18320;SDS011;54904;54.350;18.664;2023-02-15T06:33:51;16.87;;;10.73;;
18320;SDS011;54904;54.350;18.664;2023-02-15T06:36:19;17.97;;;10.53;;
18320;SDS011;54904;54.350;18.664;2023-02-15T06:38:46;24.80;;;13.70;;
18320;SDS011;54904;54.350;18.664;2023-02-15T06:41:13;23.37;;;12.67;;
18320;SDS011;54904;54.350;18.664;2023-02-15T06:43:41;22.70;;;13.10;;
18320;SDS011;54904;54.350;18.664;2023-02-15T06:46:09;21.20;;;12.10;;
18320;SDS011;54904;54.350;18.664;2023-02-15T06:48:36;20.13;;;11.03;;
18320;SDS011;54904;54.350;18.664;2023-02-15T06:51:03;13.33;;;8.93;;
18320;SDS011;54904;54.350;18.664;2023-02-15T06:53:30;14.60;;;8.57;;
18320;SDS011;54904;54.350;18.664;2023-02-15T06:56:00;15.80;;;9.03;;
18320;SDS011;54904;54.350;18.664;2023-02-15T06:58:31;17.10;;;9.83;;
18320;SDS011;54904;54.350;18.664;2023-02-15T07:01:00;14.93;;;10.07;;
18320;SDS011;54904;54.350;18.664;2023-02-15T07:03:27;18.83;;;10.53;;
18320;SDS011;54904;54.350;18.664;2023-02-15T07:05:54;21.60;;;12.10;;
18320;SDS011;54904;54.350;18.664;2023-02-15T07:08:22;27.87;;;12.53;;
18320;SDS011;54904;54.350;18.664;2023-02-15T07:10:49;23.20;;;12.63;;
18320;SDS011;54904;54.350;18.664;2023-02-15T07:13:16;23.97;;;13.17;;
18320;SDS011;54904;54.350;18.664;2023-02-15T07:15:43;18.90;;;10.10;;
18320;SDS011;54904;54.350;18.664;2023-02-15T07:18:11;16.63;;;9.50;;
18320;SDS011;54904;54.350;18.664;2023-02-15T07:20:39;17.57;;;9.87;;
18320;SDS011;54904;54.350;18.664;2023-02-15T07:23:07;15.97;;;9.07;;
18320;SDS011;54904;54.350;18.664;2023-02-15T07:25:34;16.20;;;8.80;;
18320;SDS011;54904;54.350;18.664;2023-02-15T07:28:02;17.60;;;10.37;;
18320;SDS011;54904;54.350;18.664;2023-02-15T07:30:30;17.77;;;9.67;;
18320;SDS011;54904;54.350;18.664;2023-02-15T07:32:57;16.57;;;10.00;;
18320;SDS011;54904;54.350;18.664;2023-02-15T07:35:47;17.17;;;10.60;;
18320;SDS011;54904;54.350;18.664;2023-02-15T07:38:15;15.93;;;8.97;;
18320;SDS011;54904;54.350;18.664;2023-02-15T07:40:42;11.17;;;7.63;;
18320;SDS011;54904;54.350;18.664;2023-02-15T07:43:09;11.63;;;7.50;;
18320;SDS011;54904;54.350;18.664;2023-02-15T07:45:37;17.83;;;10.63;;
18320;SDS011;54904;54.350;18.664;2023-02-15T07:48:05;15.37;;;8.67;;
18320;SDS011;54904;54.350;18.664;2023-02-15T07:50:32;15.60;;;8.83;;
18320;SDS011;54904;54.350;18.664;2023-02-15T07:53:02;16.20;;;8.70;;
18320;SDS011;54904;54.350;18.664;2023-02-15T07:55:29;16.07;;;9.07;;
18320;SDS011;54904;54.350;18.664;2023-02-15T07:57:56;16.13;;;8.63;;
18320;SDS011;54904;54.350;18.664;2023-02-15T08:00:24;11.23;;;7.40;;
18320;SDS011;54904;54.350;18.664;2023-02-15T08:02:51;13.27;;;7.10;;
18320;SDS011;54904;54.350;18.664;2023-02-15T08:05:33;20.77;;;9.50;;
18320;SDS011;54904;54.350;18.664;2023-02-15T08:08:02;14.80;;;9.03;;
18320;SDS011;54904;54.350;18.664;2023-02-15T08:10:29;14.47;;;9.23;;
18320;SDS011;54904;54.350;18.664;2023-02-15T08:13:10;14.17;;;8.07;;
18320;SDS011;54904;54.350;18.664;2023-02-15T08:15:37;14.67;;;8.90;;
18320;SDS011;54904;54.350;18.664;2023-02-15T08:18:04;17.90;;;10.50;;
18320;SDS011;54904;54.350;18.664;2023-02-15T08:20:31;16.43;;;9.73;;
18320;SDS011;54904;54.350;18.664;2023-02-15T08:22:58;15.20;;;9.03;;
18320;SDS011;54904;54.350;18.664;2023-02-15T08:25:27;17.30;;;10.07;;
18320;SDS011;54904;54.350;18.664;2023-02-15T08:27:54;17.63;;;9.60;;
18320;SDS011;54904;54.350;18.664;2023-02-15T08:30:21;19.10;;;10.03;;
18320;SDS011;54904;54.350;18.664;2023-02-15T08:32:48;15.73;;;10.03;;
18320;SDS011;54904;54.350;18.664;2023-02-15T08:35:15;19.87;;;10.33;;
18320;SDS011;54904;54.350;18.664;2023-02-15T08:37:43;15.90;;;8.53;;
18320;SDS011;54904;54.350;18.664;2023-02-15T08:40:11;18.37;;;8.67;;
18320;SDS011;54904;54.350;18.664;2023-02-15T08:42:40;11.77;;;7.63;;
18320;SDS011;54904;54.350;18.664;2023-02-15T08:45:08;17.07;;;8.33;;
18320;SDS011;54904;54.350;18.664;2023-02-15T08:47:35;12.97;;;8.27;;
18320;SDS011;54904;54.350;18.664;2023-02-15T08:50:02;19.27;;;10.13;;
18320;SDS011;54904;54.350;18.664;2023-02-15T08:52:30;15.13;;;8.80;;
18320;SDS011;54904;54.350;18.664;2023-02-15T08:54:57;13.67;;;7.87;;
18320;SDS011;54904;54.350;18.664;2023-02-15T08:57:24;13.57;;;8.63;;
18320;SDS011;54904;54.350;18.664;2023-02-15T08:59:52;14.47;;;8.20;;
18320;SDS011;54904;54.350;18.664;2023-02-15T09:02:20;16.67;;;9.30;;
18320;SDS011;54904;54.350;18.664;2023-02-15T09:04:47;15.17;;;7.70;;
18320;SDS011;54904;54.350;18.664;2023-02-15T09:07:14;13.97;;;8.00;;
18320;SDS011;54904;54.350;18.664;2023-02-15T09:09:43;15.40;;;8.63;;
18320;SDS011;54904;54.350;18.664;2023-02-15T09:12:12;14.97;;;8.80;;
18320;SDS011;54904;54.350;18.664;2023-02-15T09:14:39;10.60;;;6.83;;
18320;SDS011;54904;54.350;18.664;2023-02-15T09:17:07;15.07;;;8.50;;
18320;SDS011;54904;54.350;18.664;2023-02-15T09:19:34;14.13;;;8.87;;
18320;SDS011;54904;54.350;18.664;2023-02-15T09:22:02;18.80;;;8.90;;
18320;SDS011;54904;54.350;18.664;2023-02-15T09:24:31;15.57;;;8.60;;
18320;SDS011;54904;54.350;18.664;2023-02-15T09:26:58;11.67;;;7.53;;
18320;SDS011;54904;54.350;18.664;2023-02-15T09:29:26;16.07;;;9.53;;
18320;SDS011;54904;54.350;18.664;2023-02-15T09:31:53;13.13;;;8.67;;
18320;SDS011;54904;54.350;18.664;2023-02-15T09:34:22;13.97;;;7.90;;
18320;SDS011;54904;54.350;18.664;2023-02-15T09:36:49;13.07;;;8.03;;
18320;SDS011;54904;54.350;18.664;2023-02-15T09:39:18;14.53;;;8.97;;
18320;SDS011;54904;54.350;18.664;2023-02-15T09:41:54;13.53;;;8.03;;
18320;SDS011;54904;54.350;18.664;2023-02-15T09:44:53;13.97;;;8.60;;
18320;SDS011;54904;54.350;18.664;2023-02-15T09:47:39;15.83;;;8.53;;
18320;SDS011;54904;54.350;18.664;2023-02-15T09:50:23;10.90;;;7.50;;
18320;SDS011;54904;54.350;18.664;2023-02-15T09:53:07;11.77;;;7.77;;
18320;SDS011;54904;54.350;18.664;2023-02-15T09:55:48;16.20;;;7.97;;
18320;SDS011;54904;54.350;18.664;2023-02-15T09:58:28;11.50;;;6.63;;
18320;SDS011;54904;54.350;18.664;2023-02-15T10:01:03;8.87;;;6.57;;
18320;SDS011;54904;54.350;18.664;2023-02-15T10:03:42;13.40;;;7.53;;
18320;SDS011;54904;54.350;18.664;2023-02-15T10:06:32;11.50;;;6.87;;
18320;SDS011;54904;54.350;18.664;2023-02-15T10:09:11;16.13;;;7.33;;
18320;SDS011;54904;54.350;18.664;2023-02-15T10:11:54;11.17;;;6.80;;
18320;SDS011;54904;54.350;18.664;2023-02-15T10:14:34;11.70;;;7.23;;
18320;SDS011;54904;54.350;18.664;2023-02-15T10:17:19;9.70;;;7.23;;
18320;SDS011;54904;54.350;18.664;2023-02-15T10:20:00;9.30;;;7.00;;
18320;SDS011;54904;54.350;18.664;2023-02-15T10:22:40;11.17;;;7.40;;
18320;SDS011;54904;54.350;18.664;2023-02-15T10:25:26;8.13;;;5.90;;
18320;SDS011;54904;54.350;18.664;2023-02-15T10:28:03;8.93;;;6.30;;
18320;SDS011;54904;54.350;18.664;2023-02-15T10:30:36;9.77;;;6.80;;
18320;SDS011;54904;54.350;18.664;2023-02-15T10:33:12;11.83;;;7.50;;
18320;SDS011;54904;54.350;18.664;2023-02-15T10:35:50;7.23;;;5.83;;
18320;SDS011;54904;54.350;18.664;2023-02-15T10:38:25;16.97;;;8.37;;
18320;SDS011;54904;54.350;18.664;2023-02-15T10:41:04;15.87;;;8.87;;
18320;SDS011;54904;54.350;18.664;2023-02-15T10:43:45;16.17;;;9.03;;
18320;SDS011;54904;54.350;18.664;2023-02-15T10:46:31;18.13;;;8.93;;
18320;SDS011;54904;54.350;18.664;2023-02-15T10:49:18;11.10;;;7.23;;
18320;SDS011;54904;54.350;18.664;2023-02-15T10:52:03;10.97;;;7.47;;
18320;SDS011;54904;54.350;18.664;2023-02-15T10:54:43;11.13;;;8.13;;
18320;SDS011;54904;54.350;18.664;2023-02-15T10:57:17;9.40;;;6.17;;
18320;SDS011;54904;54.350;18.664;2023-02-15T10:59:55;9.13;;;6.23;;
18320;SDS011;54904;54.350;18.664;2023-02-15T11:02:34;10.10;;;6.67;;
18320;SDS011;54904;54.350;18.664;2023-02-15T11:05:36;12.07;;;7.07;;
18320;SDS011;54904;54.350;18.664;2023-02-15T11:08:08;14.67;;;7.87;;
18320;SDS011;54904;54.350;18.664;2023-02-15T11:10:39;10.43;;;7.03;;
18320;SDS011;54904;54.350;18.664;2023-02-15T11:13:11;19.77;;;9.70;;
18320;SDS011;54904;54.350;18.664;2023-02-15T11:15:42;18.20;;;9.83;;
18320;SDS011;54904;54.350;18.664;2023-02-15T11:18:15;14.83;;;9.97;;
18320;SDS011;54904;54.350;18.664;2023-02-15T11:20:49;10.83;;;8.07;;
18320;SDS011;54904;54.350;18.664;2023-02-15T11:23:20;14.40;;;9.00;;
18320;SDS011;54904;54.350;18.664;2023-02-15T11:25:54;12.50;;;8.37;;
18320;SDS011;54904;54.350;18.664;2023-02-15T11:28:24;13.20;;;8.93;;
18320;SDS011;54904;54.350;18.664;2023-02-15T11:30:57;13.90;;;9.53;;
18320;SDS011;54904;54.350;18.664;2023-02-15T11:33:29;14.77;;;8.17;;
18320;SDS011;54904;54.350;18.664;2023-02-15T11:35:59;13.73;;;9.37;;
18320;SDS011;54904;54.350;18.664;2023-02-15T11:38:31;13.90;;;9.30;;
18320;SDS011;54904;54.350;18.664;2023-02-15T11:41:01;17.53;;;11.00;;
18320;SDS011;54904;54.350;18.664;2023-02-15T11:43:32;16.30;;;11.10;;
18320;SDS011;54904;54.350;18.664;2023-02-15T11:52:02;18.03;;;10.07;;
18320;SDS011;54904;54.350;18.664;2023-02-15T11:54:34;17.93;;;10.20;;
18320;SDS011;54904;54.350;18.664;2023-02-15T11:57:10;18.23;;;10.80;;
18320;SDS011;54904;54.350;18.664;2023-02-15T11:59:41;14.47;;;10.07;;
18320;SDS011;54904;54.350;18.664;2023-02-15T12:02:15;14.83;;;10.40;;
18320;SDS011;54904;54.350;18.664;2023-02-15T12:04:44;13.60;;;8.60;;
18320;SDS011;54904;54.350;18.664;2023-02-15T12:07:18;14.80;;;8.97;;
18320;SDS011;54904;54.350;18.664;2023-02-15T12:09:51;19.37;;;11.13;;
18320;SDS011;54904;54.350;18.664;2023-02-15T12:12:26;19.93;;;11.57;;
18320;SDS011;54904;54.350;18.664;2023-02-15T12:14:54;18.30;;;9.63;;
18320;SDS011;54904;54.350;18.664;2023-02-15T12:17:23;15.57;;;10.33;;
18320;SDS011;54904;54.350;18.664;2023-02-15T12:19:52;14.93;;;9.30;;
18320;SDS011;54904;54.350;18.664;2023-02-15T12:22:23;17.47;;;10.87;;
18320;SDS011;54904;54.350;18.664;2023-02-15T12:24:52;12.50;;;9.30;;
18320;SDS011;54904;54.350;18.664;2023-02-15T12:27:23;15.90;;;9.60;;
18320;SDS011;54904;54.350;18.664;2023-02-15T12:29:55;19.27;;;10.70;;
18320;SDS011;54904;54.350;18.664;2023-02-15T12:32:26;20.27;;;12.10;;
18320;SDS011;54904;54.350;18.664;2023-02-15T12:35:01;15.80;;;10.70;;
18320;SDS011;54904;54.350;18.664;2023-02-15T12:37:34;17.13;;;10.27;;
18320;SDS011;54904;54.350;18.664;2023-02-15T12:40:11;14.17;;;9.53;;
18320;SDS011;54904;54.350;18.664;2023-02-15T12:42:47;14.80;;;9.93;;
18320;SDS011;54904;54.350;18.664;2023-02-15T12:45:21;16.00;;;9.70;;
18320;SDS011;54904;54.350;18.664;2023-02-15T12:50:41;16.00;;;10.07;;
18320;SDS011;54904;54.350;18.664;2023-02-15T12:53:13;12.10;;;8.53;;
18320;SDS011;54904;54.350;18.664;2023-02-15T12:55:54;15.57;;;10.20;;
18320;SDS011;54904;54.350;18.664;2023-02-15T12:58:29;16.17;;;10.27;;
18320;SDS011;54904;54.350;18.664;2023-02-15T13:01:04;12.97;;;8.93;;
18320;SDS011;54904;54.350;18.664;2023-02-15T13:03:37;13.13;;;9.03;;
18320;SDS011;54904;54.350;18.664;2023-02-15T13:06:16;13.47;;;8.73;;
18320;SDS011;54904;54.350;18.664;2023-02-15T13:08:45;12.43;;;7.07;;
18320;SDS011;54904;54.350;18.664;2023-02-15T13:11:19;14.60;;;8.53;;
18320;SDS011;54904;54.350;18.664;2023-02-15T13:13:51;17.77;;;10.07;;
18320;SDS011;54904;54.350;18.664;2023-02-15T13:16:24;12.60;;;8.23;;
18320;SDS011;54904;54.350;18.664;2023-02-15T13:18:57;11.30;;;7.40;;
18320;SDS011;54904;54.350;18.664;2023-02-15T13:21:30;15.13;;;9.30;;
18320;SDS011;54904;54.350;18.664;2023-02-15T13:24:02;17.60;;;10.53;;
18320;SDS011;54904;54.350;18.664;2023-02-15T13:26:32;13.10;;;8.63;;
18320;SDS011;54904;54.350;18.664;2023-02-15T13:29:05;18.33;;;10.57;;
18320;SDS011;54904;54.350;18.664;2023-02-15T13:31:36;13.27;;;8.80;;
18320;SDS011;54904;54.350;18.664;2023-02-15T13:34:07;18.87;;;12.40;;
18320;SDS011;54904;54.350;18.664;2023-02-15T13:36:40;20.80;;;11.40;;
18320;SDS011;54904;54.350;18.664;2023-02-15T13:39:17;22.83;;;11.93;;
18320;SDS011;54904;54.350;18.664;2023-02-15T13:41:52;16.63;;;11.10;;
18320;SDS011;54904;54.350;18.664;2023-02-15T13:47:19;19.27;;;11.17;;
18320;SDS011;54904;54.350;18.664;2023-02-15T13:49:54;24.33;;;12.37;;
18320;SDS011;54904;54.350;18.664;2023-02-15T13:52:35;21.67;;;12.47;;
18320;SDS011;54904;54.350;18.664;2023-02-15T13:55:13;20.10;;;12.10;;
18320;SDS011;54904;54.350;18.664;2023-02-15T14:00:50;13.93;;;8.93;;
18320;SDS011;54904;54.350;18.664;2023-02-15T14:03:44;12.20;;;7.30;;
18320;SDS011;54904;54.350;18.664;2023-02-15T14:06:36;15.70;;;9.90;;
18320;SDS011;54904;54.350;18.664;2023-02-15T14:09:24;17.57;;;11.27;;
18320;SDS011;54904;54.350;18.664;2023-02-15T14:12:02;20.37;;;12.53;;
18320;SDS011;54904;54.350;18.664;2023-02-15T14:14:41;20.57;;;13.33;;
18320;SDS011;54904;54.350;18.664;2023-02-15T14:17:32;20.47;;;11.83;;
18320;SDS011;54904;54.350;18.664;2023-02-15T14:20:14;22.47;;;13.40;;
18320;SDS011;54904;54.350;18.664;2023-02-15T14:22:47;21.57;;;13.83;;
18320;SDS011;54904;54.350;18.664;2023-02-15T14:25:20;26.87;;;14.73;;
18320;SDS011;54904;54.350;18.664;2023-02-15T14:27:54;23.30;;;13.43;;
18320;SDS011;54904;54.350;18.664;2023-02-15T14:30:30;22.43;;;11.73;;
18320;SDS011;54904;54.350;18.664;2023-02-15T14:33:02;23.23;;;14.30;;
18320;SDS011;54904;54.350;18.664;2023-02-15T14:35:33;28.77;;;16.17;;
18320;SDS011;54904;54.350;18.664;2023-02-15T14:38:04;37.33;;;19.57;;
18320;SDS011;54904;54.350;18.664;2023-02-15T14:40:40;39.63;;;19.53;;
18320;SDS011;54904;54.350;18.664;2023-02-15T14:43:29;41.20;;;19.80;;
18320;SDS011;54904;54.350;18.664;2023-02-15T14:46:03;37.60;;;18.47;;
18320;SDS011;54904;54.350;18.664;2023-02-15T14:48:39;39.63;;;19.83;;
18320;SDS011;54904;54.350;18.664;2023-02-15T14:57:26;33.23;;;18.17;;
18320;SDS011;54904;54.350;18.664;2023-02-15T15:00:03;31.73;;;18.33;;
18320;SDS011;54904;54.350;18.664;2023-02-15T15:03:02;37.07;;;19.27;;
18320;SDS011;54904;54.350;18.664;2023-02-15T15:05:52;33.73;;;18.37;;
18320;SDS011;54904;54.350;18.664;2023-02-15T15:08:26;34.33;;;18.43;;
18320;SDS011;54904;54.350;18.664;2023-02-15T15:14:00;36.70;;;18.93;;
18320;SDS011;54904;54.350;18.664;2023-02-15T15:16:33;35.10;;;18.87;;
18320;SDS011;54904;54.350;18.664;2023-02-15T15:22:34;32.57;;;18.67;;
18320;SDS011;54904;54.350;18.664;2023-02-15T15:25:02;37.03;;;19.33;;